sensor_id;sensor_type;location;lat;lon;timestamp;P1;durP1;ratioP1;P2;durP2;ratioP2
75400;SDS011;63974;47.538;18.972;2023-03-18T00:01:37;15.52;;;6.20;;
75400;SDS011;63974;47.538;18.972;2023-03-18T00:04:40;14.30;;;6.82;;
75400;SDS011;63974;47.538;18.972;2023-03-18T00:07:43;17.77;;;7.53;;
75400;SDS011;63974;47.538;18.972;2023-03-18T00:10:49;15.13;;;6.73;;
75400;SDS011;63974;47.538;18.972;2023-03-18T00:13:52;13.43;;;5.88;;
75400;SDS011;63974;47.538;18.972;2023-03-18T00:16:55;17.33;;;6.28;;
75400;SDS011;63974;47.538;18.972;2023-03-18T00:19:58;16.80;;;7.13;;
75400;SDS011;63974;47.538;18.972;2023-03-18T00:23:07;18.35;;;6.63;;
75400;SDS011;63974;47.538;18.972;2023-03-18T00:26:10;11.97;;;6.10;;
75400;SDS011;63974;47.538;18.972;2023-03-18T00:29:15;14.32;;;6.95;;
75400;SDS011;63974;47.538;18.972;2023-03-18T00:32:19;18.98;;;6.32;;
75400;SDS011;63974;47.538;18.972;2023-03-18T00:35:23;13.50;;;6.40;;
75400;SDS011;63974;47.538;18.972;2023-03-18T00:38:29;11.35;;;5.93;;
75400;SDS011;63974;47.538;18.972;2023-03-18T00:41:31;18.10;;;6.60;;
75400;SDS011;63974;47.538;18.972;2023-03-18T00:44:37;14.02;;;6.30;;
75400;SDS011;63974;47.538;18.972;2023-03-18T00:47:41;15.32;;;6.95;;
75400;SDS011;63974;47.538;18.972;2023-03-18T00:50:45;13.65;;;6.13;;
75400;SDS011;63974;47.538;18.972;2023-03-18T00:53:49;14.82;;;7.20;;
75400;SDS011;63974;47.538;18.972;2023-03-18T00:56:54;14.93;;;7.97;;
75400;SDS011;63974;47.538;18.972;2023-03-18T00:59:58;14.88;;;6.63;;
75400;SDS011;63974;47.538;18.972;2023-03-18T01:03:01;14.98;;;7.13;;
75400;SDS011;63974;47.538;18.972;2023-03-18T01:06:07;15.15;;;6.80;;
75400;SDS011;63974;47.538;18.972;2023-03-18T01:09:11;16.75;;;6.72;;
75400;SDS011;63974;47.538;18.972;2023-03-18T01:12:15;17.20;;;7.47;;
75400;SDS011;63974;47.538;18.972;2023-03-18T01:15:19;15.48;;;7.13;;
75400;SDS011;63974;47.538;18.972;2023-03-18T01:18:23;18.60;;;7.75;;
75400;SDS011;63974;47.538;18.972;2023-03-18T01:21:26;15.30;;;6.78;;
75400;SDS011;63974;47.538;18.972;2023-03-18T01:24:32;15.55;;;6.70;;
75400;SDS011;63974;47.538;18.972;2023-03-18T01:27:35;14.47;;;7.27;;
75400;SDS011;63974;47.538;18.972;2023-03-18T01:30:39;15.35;;;6.57;;
75400;SDS011;63974;47.538;18.972;2023-03-18T01:33:43;14.25;;;6.60;;
75400;SDS011;63974;47.538;18.972;2023-03-18T01:36:46;17.90;;;7.47;;
75400;SDS011;63974;47.538;18.972;2023-03-18T01:39:49;14.75;;;7.00;;
75400;SDS011;63974;47.538;18.972;2023-03-18T01:43:18;16.00;;;6.43;;
75400;SDS011;63974;47.538;18.972;2023-03-18T01:46:33;12.27;;;6.53;;
75400;SDS011;63974;47.538;18.972;2023-03-18T01:49:48;12.32;;;6.45;;
75400;SDS011;63974;47.538;18.972;2023-03-18T01:52:55;14.43;;;6.10;;
75400;SDS011;63974;47.538;18.972;2023-03-18T01:56:02;15.43;;;6.70;;
75400;SDS011;63974;47.538;18.972;2023-03-18T01:59:05;15.80;;;6.50;;
75400;SDS011;63974;47.538;18.972;2023-03-18T02:02:11;16.00;;;7.07;;
75400;SDS011;63974;47.538;18.972;2023-03-18T02:05:17;13.93;;;6.07;;
75400;SDS011;63974;47.538;18.972;2023-03-18T02:08:23;15.05;;;5.97;;
75400;SDS011;63974;47.538;18.972;2023-03-18T02:11:26;13.63;;;6.00;;
75400;SDS011;63974;47.538;18.972;2023-03-18T02:14:33;14.73;;;6.33;;
75400;SDS011;63974;47.538;18.972;2023-03-18T02:17:38;15.20;;;5.88;;
75400;SDS011;63974;47.538;18.972;2023-03-18T02:20:57;14.38;;;6.68;;
75400;SDS011;63974;47.538;18.972;2023-03-18T02:27:56;13.30;;;5.72;;
75400;SDS011;63974;47.538;18.972;2023-03-18T02:31:07;10.43;;;5.20;;
75400;SDS011;63974;47.538;18.972;2023-03-18T02:34:15;9.55;;;5.32;;
75400;SDS011;63974;47.538;18.972;2023-03-18T02:37:20;13.48;;;5.35;;
75400;SDS011;63974;47.538;18.972;2023-03-18T02:40:26;9.60;;;5.20;;
75400;SDS011;63974;47.538;18.972;2023-03-18T02:43:37;9.10;;;4.60;;
75400;SDS011;63974;47.538;18.972;2023-03-18T02:50:08;10.05;;;5.15;;
75400;SDS011;63974;47.538;18.972;2023-03-18T02:53:12;13.30;;;5.38;;
75400;SDS011;63974;47.538;18.972;2023-03-18T02:56:16;9.95;;;5.03;;
75400;SDS011;63974;47.538;18.972;2023-03-18T02:59:19;12.48;;;6.03;;
75400;SDS011;63974;47.538;18.972;2023-03-18T03:02:23;10.07;;;4.50;;
75400;SDS011;63974;47.538;18.972;2023-03-18T03:05:26;10.32;;;5.25;;
75400;SDS011;63974;47.538;18.972;2023-03-18T03:08:29;13.65;;;5.82;;
75400;SDS011;63974;47.538;18.972;2023-03-18T03:11:32;12.18;;;5.53;;
75400;SDS011;63974;47.538;18.972;2023-03-18T03:14:43;12.60;;;5.50;;
75400;SDS011;63974;47.538;18.972;2023-03-18T03:17:48;11.93;;;5.30;;
75400;SDS011;63974;47.538;18.972;2023-03-18T03:20:51;14.38;;;5.28;;
75400;SDS011;63974;47.538;18.972;2023-03-18T03:23:55;11.52;;;5.53;;
75400;SDS011;63974;47.538;18.972;2023-03-18T03:26:58;16.35;;;6.55;;
75400;SDS011;63974;47.538;18.972;2023-03-18T03:30:01;12.93;;;5.68;;
75400;SDS011;63974;47.538;18.972;2023-03-18T03:33:04;16.23;;;5.60;;
75400;SDS011;63974;47.538;18.972;2023-03-18T03:36:12;11.18;;;5.70;;
75400;SDS011;63974;47.538;18.972;2023-03-18T03:39:16;12.30;;;5.90;;
75400;SDS011;63974;47.538;18.972;2023-03-18T03:42:19;13.45;;;6.03;;
75400;SDS011;63974;47.538;18.972;2023-03-18T03:45:22;13.27;;;5.47;;
75400;SDS011;63974;47.538;18.972;2023-03-18T03:48:28;12.97;;;5.90;;
75400;SDS011;63974;47.538;18.972;2023-03-18T03:51:31;15.68;;;5.95;;
75400;SDS011;63974;47.538;18.972;2023-03-18T03:54:34;14.13;;;5.55;;
75400;SDS011;63974;47.538;18.972;2023-03-18T03:57:37;12.48;;;6.25;;
75400;SDS011;63974;47.538;18.972;2023-03-18T04:00:40;17.92;;;6.32;;
75400;SDS011;63974;47.538;18.972;2023-03-18T04:03:43;18.17;;;6.67;;
75400;SDS011;63974;47.538;18.972;2023-03-18T04:06:46;14.73;;;6.55;;
75400;SDS011;63974;47.538;18.972;2023-03-18T04:09:48;15.77;;;6.78;;
75400;SDS011;63974;47.538;18.972;2023-03-18T04:12:52;13.75;;;5.93;;
75400;SDS011;63974;47.538;18.972;2023-03-18T04:15:55;15.70;;;6.22;;
75400;SDS011;63974;47.538;18.972;2023-03-18T04:18:58;11.83;;;5.73;;
75400;SDS011;63974;47.538;18.972;2023-03-18T04:22:01;13.93;;;6.22;;
75400;SDS011;63974;47.538;18.972;2023-03-18T04:25:05;15.27;;;6.20;;
75400;SDS011;63974;47.538;18.972;2023-03-18T04:28:09;13.40;;;6.60;;
75400;SDS011;63974;47.538;18.972;2023-03-18T04:31:12;12.85;;;6.50;;
75400;SDS011;63974;47.538;18.972;2023-03-18T04:34:16;14.80;;;6.30;;
75400;SDS011;63974;47.538;18.972;2023-03-18T04:37:19;16.15;;;6.22;;
75400;SDS011;63974;47.538;18.972;2023-03-18T04:40:27;13.43;;;6.13;;
75400;SDS011;63974;47.538;18.972;2023-03-18T04:43:30;14.35;;;6.90;;
75400;SDS011;63974;47.538;18.972;2023-03-18T04:46:34;14.15;;;6.82;;
75400;SDS011;63974;47.538;18.972;2023-03-18T04:49:37;13.97;;;7.30;;
75400;SDS011;63974;47.538;18.972;2023-03-18T04:52:41;20.42;;;9.43;;
75400;SDS011;63974;47.538;18.972;2023-03-18T04:55:48;22.60;;;10.55;;
75400;SDS011;63974;47.538;18.972;2023-03-18T04:58:54;16.90;;;8.70;;
75400;SDS011;63974;47.538;18.972;2023-03-18T05:02:02;17.63;;;8.35;;
75400;SDS011;63974;47.538;18.972;2023-03-18T05:05:07;18.23;;;8.83;;
75400;SDS011;63974;47.538;18.972;2023-03-18T05:08:15;19.63;;;8.63;;
75400;SDS011;63974;47.538;18.972;2023-03-18T05:11:18;20.85;;;8.23;;
75400;SDS011;63974;47.538;18.972;2023-03-18T05:14:23;17.60;;;8.27;;
75400;SDS011;63974;47.538;18.972;2023-03-18T05:17:26;21.05;;;8.18;;
75400;SDS011;63974;47.538;18.972;2023-03-18T05:20:34;22.20;;;9.63;;
75400;SDS011;63974;47.538;18.972;2023-03-18T05:23:38;19.08;;;8.57;;
75400;SDS011;63974;47.538;18.972;2023-03-18T05:26:41;20.30;;;8.70;;
75400;SDS011;63974;47.538;18.972;2023-03-18T05:29:45;16.02;;;7.10;;
75400;SDS011;63974;47.538;18.972;2023-03-18T05:32:54;17.85;;;7.72;;
75400;SDS011;63974;47.538;18.972;2023-03-18T05:36:11;19.87;;;8.00;;
75400;SDS011;63974;47.538;18.972;2023-03-18T05:39:27;20.20;;;8.88;;
75400;SDS011;63974;47.538;18.972;2023-03-18T05:42:30;20.83;;;9.02;;
75400;SDS011;63974;47.538;18.972;2023-03-18T05:45:33;21.10;;;10.15;;
75400;SDS011;63974;47.538;18.972;2023-03-18T05:48:41;23.70;;;9.65;;
75400;SDS011;63974;47.538;18.972;2023-03-18T05:51:45;18.37;;;8.93;;
75400;SDS011;63974;47.538;18.972;2023-03-18T05:54:58;22.33;;;9.43;;
75400;SDS011;63974;47.538;18.972;2023-03-18T05:58:08;22.98;;;9.95;;
75400;SDS011;63974;47.538;18.972;2023-03-18T06:01:13;28.40;;;10.80;;
75400;SDS011;63974;47.538;18.972;2023-03-18T06:04:16;18.83;;;9.27;;
75400;SDS011;63974;47.538;18.972;2023-03-18T06:07:20;22.37;;;10.23;;
75400;SDS011;63974;47.538;18.972;2023-03-18T06:10:24;26.45;;;10.63;;
75400;SDS011;63974;47.538;18.972;2023-03-18T06:13:28;22.50;;;11.35;;
75400;SDS011;63974;47.538;18.972;2023-03-18T06:16:32;24.45;;;11.25;;
75400;SDS011;63974;47.538;18.972;2023-03-18T06:19:36;21.05;;;10.32;;
75400;SDS011;63974;47.538;18.972;2023-03-18T06:22:39;22.53;;;10.47;;
75400;SDS011;63974;47.538;18.972;2023-03-18T06:25:43;24.63;;;10.50;;
75400;SDS011;63974;47.538;18.972;2023-03-18T06:28:48;24.85;;;11.25;;
75400;SDS011;63974;47.538;18.972;2023-03-18T06:31:51;25.70;;;12.48;;
75400;SDS011;63974;47.538;18.972;2023-03-18T06:34:58;24.73;;;10.73;;
75400;SDS011;63974;47.538;18.972;2023-03-18T06:38:03;22.97;;;10.97;;
75400;SDS011;63974;47.538;18.972;2023-03-18T06:41:09;23.77;;;11.40;;
75400;SDS011;63974;47.538;18.972;2023-03-18T06:44:20;31.17;;;14.20;;
75400;SDS011;63974;47.538;18.972;2023-03-18T06:47:24;27.38;;;11.60;;
75400;SDS011;63974;47.538;18.972;2023-03-18T06:50:30;26.10;;;11.07;;
75400;SDS011;63974;47.538;18.972;2023-03-18T06:53:34;23.30;;;10.87;;
75400;SDS011;63974;47.538;18.972;2023-03-18T06:56:38;22.80;;;9.65;;
75400;SDS011;63974;47.538;18.972;2023-03-18T06:59:53;25.60;;;11.68;;
75400;SDS011;63974;47.538;18.972;2023-03-18T07:02:57;24.02;;;11.10;;
75400;SDS011;63974;47.538;18.972;2023-03-18T07:06:01;26.67;;;11.50;;
75400;SDS011;63974;47.538;18.972;2023-03-18T07:09:06;24.27;;;11.13;;
75400;SDS011;63974;47.538;18.972;2023-03-18T07:12:13;23.45;;;10.43;;
75400;SDS011;63974;47.538;18.972;2023-03-18T07:15:17;19.73;;;9.70;;
75400;SDS011;63974;47.538;18.972;2023-03-18T07:18:26;15.05;;;7.00;;
75400;SDS011;63974;47.538;18.972;2023-03-18T07:21:30;15.30;;;6.82;;
75400;SDS011;63974;47.538;18.972;2023-03-18T07:24:33;13.70;;;6.17;;
75400;SDS011;63974;47.538;18.972;2023-03-18T07:27:38;11.43;;;5.60;;
75400;SDS011;63974;47.538;18.972;2023-03-18T07:30:41;11.77;;;6.07;;
75400;SDS011;63974;47.538;18.972;2023-03-18T07:33:44;13.68;;;6.78;;
75400;SDS011;63974;47.538;18.972;2023-03-18T07:36:48;14.00;;;6.85;;
75400;SDS011;63974;47.538;18.972;2023-03-18T07:39:51;12.30;;;6.57;;
75400;SDS011;63974;47.538;18.972;2023-03-18T07:42:54;13.57;;;6.65;;
75400;SDS011;63974;47.538;18.972;2023-03-18T07:45:57;11.75;;;6.60;;
75400;SDS011;63974;47.538;18.972;2023-03-18T07:49:00;11.90;;;5.75;;
75400;SDS011;63974;47.538;18.972;2023-03-18T07:52:03;13.98;;;7.28;;
75400;SDS011;63974;47.538;18.972;2023-03-18T07:55:06;13.90;;;5.90;;
75400;SDS011;63974;47.538;18.972;2023-03-18T07:58:10;13.63;;;5.18;;
75400;SDS011;63974;47.538;18.972;2023-03-18T08:01:13;13.52;;;5.95;;
75400;SDS011;63974;47.538;18.972;2023-03-18T08:04:20;12.65;;;5.93;;
75400;SDS011;63974;47.538;18.972;2023-03-18T08:07:23;11.90;;;6.20;;
75400;SDS011;63974;47.538;18.972;2023-03-18T08:10:26;13.90;;;6.63;;
75400;SDS011;63974;47.538;18.972;2023-03-18T08:13:30;14.27;;;6.40;;
75400;SDS011;63974;47.538;18.972;2023-03-18T08:16:33;13.00;;;6.60;;
75400;SDS011;63974;47.538;18.972;2023-03-18T08:19:36;11.65;;;6.47;;
75400;SDS011;63974;47.538;18.972;2023-03-18T08:22:38;13.07;;;5.88;;
75400;SDS011;63974;47.538;18.972;2023-03-18T08:25:41;14.03;;;5.97;;
75400;SDS011;63974;47.538;18.972;2023-03-18T08:28:45;10.20;;;5.55;;
75400;SDS011;63974;47.538;18.972;2023-03-18T08:31:47;12.50;;;6.13;;
75400;SDS011;63974;47.538;18.972;2023-03-18T08:34:50;11.68;;;6.47;;
75400;SDS011;63974;47.538;18.972;2023-03-18T08:37:53;13.15;;;6.47;;
75400;SDS011;63974;47.538;18.972;2023-03-18T08:40:56;9.93;;;5.30;;
75400;SDS011;63974;47.538;18.972;2023-03-18T08:44:00;11.73;;;5.90;;
75400;SDS011;63974;47.538;18.972;2023-03-18T08:47:03;12.05;;;5.20;;
75400;SDS011;63974;47.538;18.972;2023-03-18T08:50:07;13.07;;;5.10;;
75400;SDS011;63974;47.538;18.972;2023-03-18T08:53:10;11.43;;;5.00;;
75400;SDS011;63974;47.538;18.972;2023-03-18T08:56:14;9.70;;;5.27;;
75400;SDS011;63974;47.538;18.972;2023-03-18T08:59:17;10.15;;;4.95;;
75400;SDS011;63974;47.538;18.972;2023-03-18T09:02:20;12.38;;;6.13;;
75400;SDS011;63974;47.538;18.972;2023-03-18T09:05:23;8.65;;;5.13;;
75400;SDS011;63974;47.538;18.972;2023-03-18T09:08:27;12.20;;;6.00;;
75400;SDS011;63974;47.538;18.972;2023-03-18T09:11:30;10.63;;;5.60;;
75400;SDS011;63974;47.538;18.972;2023-03-18T09:14:33;10.85;;;5.63;;
75400;SDS011;63974;47.538;18.972;2023-03-18T09:17:36;9.77;;;5.90;;
75400;SDS011;63974;47.538;18.972;2023-03-18T09:21:01;12.05;;;6.18;;
75400;SDS011;63974;47.538;18.972;2023-03-18T09:24:06;9.43;;;6.28;;
75400;SDS011;63974;47.538;18.972;2023-03-18T09:27:09;10.90;;;6.30;;
75400;SDS011;63974;47.538;18.972;2023-03-18T09:30:12;10.25;;;5.72;;
75400;SDS011;63974;47.538;18.972;2023-03-18T09:33:15;11.95;;;6.82;;
75400;SDS011;63974;47.538;18.972;2023-03-18T09:36:19;10.88;;;6.10;;
75400;SDS011;63974;47.538;18.972;2023-03-18T09:39:22;10.90;;;6.15;;
75400;SDS011;63974;47.538;18.972;2023-03-18T09:42:44;12.33;;;5.63;;
75400;SDS011;63974;47.538;18.972;2023-03-18T09:49:27;11.15;;;5.32;;
75400;SDS011;63974;47.538;18.972;2023-03-18T09:52:34;9.07;;;5.55;;
75400;SDS011;63974;47.538;18.972;2023-03-18T09:55:51;10.18;;;5.32;;
75400;SDS011;63974;47.538;18.972;2023-03-18T09:59:01;9.07;;;5.10;;
75400;SDS011;63974;47.538;18.972;2023-03-18T10:02:19;9.02;;;5.05;;
75400;SDS011;63974;47.538;18.972;2023-03-18T10:05:30;7.03;;;4.38;;
75400;SDS011;63974;47.538;18.972;2023-03-18T10:09:00;7.82;;;4.22;;
75400;SDS011;63974;47.538;18.972;2023-03-18T10:12:06;11.27;;;4.28;;
75400;SDS011;63974;47.538;18.972;2023-03-18T10:15:24;8.63;;;4.87;;
75400;SDS011;63974;47.538;18.972;2023-03-18T10:18:34;8.27;;;4.47;;
75400;SDS011;63974;47.538;18.972;2023-03-18T10:21:47;10.00;;;4.70;;
75400;SDS011;63974;47.538;18.972;2023-03-18T10:31:44;5.67;;;3.83;;
75400;SDS011;63974;47.538;18.972;2023-03-18T10:34:58;6.40;;;3.83;;
75400;SDS011;63974;47.538;18.972;2023-03-18T10:38:21;6.80;;;4.15;;
75400;SDS011;63974;47.538;18.972;2023-03-18T10:41:29;9.10;;;4.30;;
75400;SDS011;63974;47.538;18.972;2023-03-18T10:44:36;9.27;;;4.30;;
75400;SDS011;63974;47.538;18.972;2023-03-18T10:47:43;9.53;;;4.43;;
75400;SDS011;63974;47.538;18.972;2023-03-18T10:54:27;8.48;;;4.40;;
75400;SDS011;63974;47.538;18.972;2023-03-18T10:57:34;7.70;;;4.60;;
75400;SDS011;63974;47.538;18.972;2023-03-18T11:00:36;7.18;;;4.50;;
75400;SDS011;63974;47.538;18.972;2023-03-18T11:03:41;7.13;;;4.20;;
75400;SDS011;63974;47.538;18.972;2023-03-18T11:06:51;5.45;;;3.88;;
75400;SDS011;63974;47.538;18.972;2023-03-18T11:10:12;7.60;;;3.75;;
75400;SDS011;63974;47.538;18.972;2023-03-18T11:13:19;6.65;;;3.80;;
75400;SDS011;63974;47.538;18.972;2023-03-18T11:16:25;8.90;;;3.92;;
75400;SDS011;63974;47.538;18.972;2023-03-18T11:19:37;6.90;;;3.70;;
75400;SDS011;63974;47.538;18.972;2023-03-18T11:22:43;7.20;;;4.25;;
75400;SDS011;63974;47.538;18.972;2023-03-18T11:25:50;8.98;;;4.32;;
75400;SDS011;63974;47.538;18.972;2023-03-18T11:29:09;7.22;;;3.97;;
75400;SDS011;63974;47.538;18.972;2023-03-18T11:32:28;4.60;;;3.63;;
75400;SDS011;63974;47.538;18.972;2023-03-18T11:35:57;6.00;;;3.37;;
75400;SDS011;63974;47.538;18.972;2023-03-18T11:39:03;6.25;;;3.28;;
75400;SDS011;63974;47.538;18.972;2023-03-18T11:42:16;6.35;;;3.17;;
75400;SDS011;63974;47.538;18.972;2023-03-18T11:45:26;7.50;;;3.55;;
75400;SDS011;63974;47.538;18.972;2023-03-18T11:48:34;7.13;;;3.70;;
75400;SDS011;63974;47.538;18.972;2023-03-18T11:55:08;5.38;;;3.33;;
75400;SDS011;63974;47.538;18.972;2023-03-18T12:05:36;5.25;;;3.50;;
75400;SDS011;63974;47.538;18.972;2023-03-18T12:26:06;6.63;;;3.70;;
75400;SDS011;63974;47.538;18.972;2023-03-18T12:32:33;6.38;;;3.08;;
75400;SDS011;63974;47.538;18.972;2023-03-18T12:35:45;4.88;;;3.00;;
75400;SDS011;63974;47.538;18.972;2023-03-18T12:45:41;4.28;;;2.72;;
75400;SDS011;63974;47.538;18.972;2023-03-18T12:49:51;6.80;;;3.42;;
75400;SDS011;63974;47.538;18.972;2023-03-18T12:52:31;4.35;;;2.95;;
75400;SDS011;63974;47.538;18.972;2023-03-18T12:55:36;4.13;;;2.42;;
75400;SDS011;63974;47.538;18.972;2023-03-18T12:58:43;4.83;;;2.83;;
75400;SDS011;63974;47.538;18.972;2023-03-18T13:02:03;5.72;;;3.22;;
75400;SDS011;63974;47.538;18.972;2023-03-18T13:05:28;4.78;;;3.03;;
75400;SDS011;63974;47.538;18.972;2023-03-18T13:08:40;3.80;;;2.42;;
75400;SDS011;63974;47.538;18.972;2023-03-18T13:11:54;4.90;;;2.63;;
75400;SDS011;63974;47.538;18.972;2023-03-18T13:15:27;4.90;;;2.90;;
75400;SDS011;63974;47.538;18.972;2023-03-18T13:18:37;6.90;;;3.10;;
75400;SDS011;63974;47.538;18.972;2023-03-18T13:21:49;6.25;;;3.33;;
75400;SDS011;63974;47.538;18.972;2023-03-18T13:31:32;9.27;;;3.57;;
75400;SDS011;63974;47.538;18.972;2023-03-18T13:45:27;28.73;;;10.35;;
75400;SDS011;63974;47.538;18.972;2023-03-18T13:48:35;5.97;;;3.17;;
75400;SDS011;63974;47.538;18.972;2023-03-18T13:54:41;6.68;;;3.33;;
75400;SDS011;63974;47.538;18.972;2023-03-18T13:57:45;4.80;;;2.70;;
75400;SDS011;63974;47.538;18.972;2023-03-18T14:03:59;5.73;;;3.20;;
75400;SDS011;63974;47.538;18.972;2023-03-18T14:07:18;4.30;;;2.92;;
75400;SDS011;63974;47.538;18.972;2023-03-18T14:10:25;4.35;;;2.60;;
75400;SDS011;63974;47.538;18.972;2023-03-18T14:13:27;4.90;;;3.10;;
75400;SDS011;63974;47.538;18.972;2023-03-18T14:19:39;4.93;;;3.30;;
75400;SDS011;63974;47.538;18.972;2023-03-18T14:22:43;4.68;;;2.97;;
75400;SDS011;63974;47.538;18.972;2023-03-18T14:25:47;4.65;;;3.00;;
75400;SDS011;63974;47.538;18.972;2023-03-18T14:29:42;4.93;;;2.78;;
75400;SDS011;63974;47.538;18.972;2023-03-18T14:36:19;6.23;;;3.67;;
75400;SDS011;63974;47.538;18.972;2023-03-18T14:39:04;6.13;;;3.40;;
75400;SDS011;63974;47.538;18.972;2023-03-18T14:42:14;5.47;;;3.50;;
75400;SDS011;63974;47.538;18.972;2023-03-18T14:45:24;5.55;;;3.40;;
75400;SDS011;63974;47.538;18.972;2023-03-18T14:48:29;8.38;;;4.32;;
75400;SDS011;63974;47.538;18.972;2023-03-18T14:51:36;5.90;;;3.23;;
75400;SDS011;63974;47.538;18.972;2023-03-18T14:54:40;6.45;;;3.65;;
75400;SDS011;63974;47.538;18.972;2023-03-18T14:57:46;5.78;;;3.90;;
75400;SDS011;63974;47.538;18.972;2023-03-18T15:00:50;5.80;;;3.45;;
75400;SDS011;63974;47.538;18.972;2023-03-18T15:03:57;5.28;;;3.58;;
75400;SDS011;63974;47.538;18.972;2023-03-18T15:07:01;5.93;;;3.50;;
75400;SDS011;63974;47.538;18.972;2023-03-18T15:10:18;5.45;;;3.95;;
75400;SDS011;63974;47.538;18.972;2023-03-18T15:13:25;6.22;;;3.88;;
75400;SDS011;63974;47.538;18.972;2023-03-18T15:16:28;5.15;;;3.55;;
75400;SDS011;63974;47.538;18.972;2023-03-18T15:19:34;6.65;;;4.07;;
75400;SDS011;63974;47.538;18.972;2023-03-18T15:22:37;8.70;;;4.70;;
75400;SDS011;63974;47.538;18.972;2023-03-18T15:25:41;14.23;;;6.43;;
75400;SDS011;63974;47.538;18.972;2023-03-18T15:28:46;6.88;;;3.67;;
75400;SDS011;63974;47.538;18.972;2023-03-18T15:31:49;5.30;;;3.35;;
75400;SDS011;63974;47.538;18.972;2023-03-18T15:34:55;6.35;;;3.60;;
75400;SDS011;63974;47.538;18.972;2023-03-18T15:38:16;5.67;;;4.10;;
75400;SDS011;63974;47.538;18.972;2023-03-18T15:41:20;5.43;;;3.72;;
75400;SDS011;63974;47.538;18.972;2023-03-18T15:44:25;6.95;;;4.25;;
75400;SDS011;63974;47.538;18.972;2023-03-18T15:47:31;6.43;;;3.92;;
75400;SDS011;63974;47.538;18.972;2023-03-18T15:50:35;14.27;;;7.45;;
75400;SDS011;63974;47.538;18.972;2023-03-18T15:53:42;14.20;;;7.73;;
75400;SDS011;63974;47.538;18.972;2023-03-18T15:56:49;16.23;;;8.55;;
75400;SDS011;63974;47.538;18.972;2023-03-18T15:59:54;14.65;;;8.15;;
75400;SDS011;63974;47.538;18.972;2023-03-18T16:02:58;6.70;;;4.80;;
75400;SDS011;63974;47.538;18.972;2023-03-18T16:06:01;7.25;;;5.15;;
75400;SDS011;63974;47.538;18.972;2023-03-18T16:12:21;18.90;;;8.30;;
75400;SDS011;63974;47.538;18.972;2023-03-18T16:15:26;10.52;;;6.00;;
75400;SDS011;63974;47.538;18.972;2023-03-18T16:18:31;11.20;;;5.30;;
75400;SDS011;63974;47.538;18.972;2023-03-18T16:21:34;9.48;;;5.05;;
75400;SDS011;63974;47.538;18.972;2023-03-18T16:24:37;6.87;;;4.50;;
75400;SDS011;63974;47.538;18.972;2023-03-18T16:27:41;8.52;;;4.72;;
75400;SDS011;63974;47.538;18.972;2023-03-18T16:30:47;7.65;;;4.30;;
75400;SDS011;63974;47.538;18.972;2023-03-18T16:33:53;14.60;;;6.25;;
75400;SDS011;63974;47.538;18.972;2023-03-18T16:36:57;9.25;;;5.55;;
75400;SDS011;63974;47.538;18.972;2023-03-18T16:40:00;7.50;;;4.70;;
75400;SDS011;63974;47.538;18.972;2023-03-18T16:43:03;10.10;;;4.53;;
75400;SDS011;63974;47.538;18.972;2023-03-18T16:46:11;8.27;;;4.30;;
75400;SDS011;63974;47.538;18.972;2023-03-18T16:49:19;7.28;;;4.40;;
75400;SDS011;63974;47.538;18.972;2023-03-18T16:52:27;7.78;;;5.50;;
75400;SDS011;63974;47.538;18.972;2023-03-18T16:55:30;8.83;;;5.53;;
75400;SDS011;63974;47.538;18.972;2023-03-18T16:58:35;8.02;;;4.95;;
75400;SDS011;63974;47.538;18.972;2023-03-18T17:01:38;9.43;;;5.88;;
75400;SDS011;63974;47.538;18.972;2023-03-18T17:04:44;9.15;;;5.05;;
75400;SDS011;63974;47.538;18.972;2023-03-18T17:07:48;8.82;;;4.80;;
75400;SDS011;63974;47.538;18.972;2023-03-18T17:10:53;8.37;;;4.87;;
75400;SDS011;63974;47.538;18.972;2023-03-18T17:13:58;9.73;;;5.13;;
75400;SDS011;63974;47.538;18.972;2023-03-18T17:17:01;11.52;;;4.97;;
75400;SDS011;63974;47.538;18.972;2023-03-18T17:20:18;13.88;;;6.45;;
75400;SDS011;63974;47.538;18.972;2023-03-18T17:23:23;10.35;;;5.53;;
75400;SDS011;63974;47.538;18.972;2023-03-18T17:26:28;14.60;;;7.07;;
75400;SDS011;63974;47.538;18.972;2023-03-18T17:29:32;21.92;;;10.07;;
75400;SDS011;63974;47.538;18.972;2023-03-18T17:32:34;20.20;;;9.50;;
75400;SDS011;63974;47.538;18.972;2023-03-18T17:35:37;20.02;;;9.48;;
75400;SDS011;63974;47.538;18.972;2023-03-18T17:38:40;9.60;;;6.25;;
75400;SDS011;63974;47.538;18.972;2023-03-18T17:41:43;10.67;;;5.90;;
75400;SDS011;63974;47.538;18.972;2023-03-18T17:44:46;12.02;;;7.03;;
75400;SDS011;63974;47.538;18.972;2023-03-18T17:47:50;32.38;;;12.38;;
75400;SDS011;63974;47.538;18.972;2023-03-18T17:51:04;12.38;;;6.28;;
75400;SDS011;63974;47.538;18.972;2023-03-18T17:54:10;10.15;;;5.70;;
75400;SDS011;63974;47.538;18.972;2023-03-18T17:57:15;9.43;;;5.53;;
75400;SDS011;63974;47.538;18.972;2023-03-18T18:00:22;9.63;;;4.88;;
75400;SDS011;63974;47.538;18.972;2023-03-18T18:03:28;12.73;;;7.30;;
75400;SDS011;63974;47.538;18.972;2023-03-18T18:06:32;8.85;;;4.65;;
75400;SDS011;63974;47.538;18.972;2023-03-18T18:09:35;9.00;;;4.88;;
75400;SDS011;63974;47.538;18.972;2023-03-18T18:12:38;10.73;;;5.57;;
75400;SDS011;63974;47.538;18.972;2023-03-18T18:15:43;9.93;;;5.10;;
75400;SDS011;63974;47.538;18.972;2023-03-18T18:18:47;12.57;;;5.97;;
75400;SDS011;63974;47.538;18.972;2023-03-18T18:21:51;12.45;;;5.63;;
75400;SDS011;63974;47.538;18.972;2023-03-18T18:24:54;11.65;;;6.85;;
75400;SDS011;63974;47.538;18.972;2023-03-18T18:27:59;12.07;;;6.60;;
75400;SDS011;63974;47.538;18.972;2023-03-18T18:31:03;12.98;;;5.78;;
75400;SDS011;63974;47.538;18.972;2023-03-18T18:34:07;13.20;;;6.50;;
75400;SDS011;63974;47.538;18.972;2023-03-18T18:37:10;15.68;;;7.05;;
75400;SDS011;63974;47.538;18.972;2023-03-18T18:40:14;14.77;;;7.35;;
75400;SDS011;63974;47.538;18.972;2023-03-18T18:43:20;12.07;;;6.20;;
75400;SDS011;63974;47.538;18.972;2023-03-18T18:46:24;10.93;;;5.72;;
75400;SDS011;63974;47.538;18.972;2023-03-18T18:49:29;10.63;;;5.97;;
75400;SDS011;63974;47.538;18.972;2023-03-18T18:52:32;10.27;;;5.50;;
75400;SDS011;63974;47.538;18.972;2023-03-18T18:55:36;12.05;;;6.07;;
75400;SDS011;63974;47.538;18.972;2023-03-18T18:58:39;12.47;;;6.77;;
75400;SDS011;63974;47.538;18.972;2023-03-18T19:01:43;11.98;;;5.82;;
75400;SDS011;63974;47.538;18.972;2023-03-18T19:04:47;12.27;;;5.88;;
75400;SDS011;63974;47.538;18.972;2023-03-18T19:07:50;12.57;;;5.32;;
75400;SDS011;63974;47.538;18.972;2023-03-18T19:10:54;13.88;;;6.35;;
75400;SDS011;63974;47.538;18.972;2023-03-18T19:17:27;12.65;;;5.60;;
75400;SDS011;63974;47.538;18.972;2023-03-18T19:20:30;9.30;;;6.00;;
75400;SDS011;63974;47.538;18.972;2023-03-18T19:23:34;9.02;;;5.18;;
75400;SDS011;63974;47.538;18.972;2023-03-18T19:26:37;10.90;;;6.00;;
75400;SDS011;63974;47.538;18.972;2023-03-18T19:29:40;9.90;;;5.53;;
75400;SDS011;63974;47.538;18.972;2023-03-18T19:32:44;12.88;;;5.63;;
75400;SDS011;63974;47.538;18.972;2023-03-18T19:35:47;12.60;;;6.70;;
75400;SDS011;63974;47.538;18.972;2023-03-18T19:38:54;10.63;;;6.45;;
75400;SDS011;63974;47.538;18.972;2023-03-18T19:42:00;11.82;;;6.18;;
75400;SDS011;63974;47.538;18.972;2023-03-18T19:45:04;11.90;;;5.50;;
75400;SDS011;63974;47.538;18.972;2023-03-18T19:48:09;12.35;;;5.68;;
75400;SDS011;63974;47.538;18.972;2023-03-18T19:51:17;9.77;;;5.57;;